sensor_id;sensor_type;location;lat;lon;timestamp;pressure;altitude;pressure_sealevel;temperature;humidity
23363;BME280;11853;48.080;11.960;2024-01-30T00:01:13;96136.47;;;6.08;62.26
23363;BME280;11853;48.080;11.960;2024-01-30T00:03:38;96143.59;;;6.06;62.75
23363;BME280;11853;48.080;11.960;2024-01-30T00:06:04;96138.91;;;5.97;62.75
23363;BME280;11853;48.080;11.960;2024-01-30T00:08:29;96139.16;;;5.93;62.65
23363;BME280;11853;48.080;11.960;2024-01-30T00:10:55;96134.91;;;5.90;62.67
23363;BME280;11853;48.080;11.960;2024-01-30T00:13:20;96139.34;;;5.90;62.56
23363;BME280;11853;48.080;11.960;2024-01-30T00:15:46;96140.38;;;5.87;62.89
23363;BME280;11853;48.080;11.960;2024-01-30T00:18:12;96132.75;;;5.82;63.19
23363;BME280;11853;48.080;11.960;2024-01-30T00:20:37;96129.34;;;5.80;62.94
23363;BME280;11853;48.080;11.960;2024-01-30T00:23:03;96143.53;;;5.78;63.20
23363;BME280;11853;48.080;11.960;2024-01-30T00:25:29;96142.78;;;5.76;63.88
23363;BME280;11853;48.080;11.960;2024-01-30T00:27:54;96147.03;;;5.78;63.42
23363;BME280;11853;48.080;11.960;2024-01-30T00:30:20;96145.25;;;5.79;63.97
23363;BME280;11853;48.080;11.960;2024-01-30T00:32:46;96140.91;;;5.78;63.49
23363;BME280;11853;48.080;11.960;2024-01-30T00:35:11;96148.66;;;5.81;63.50
23363;BME280;11853;48.080;11.960;2024-01-30T00:37:37;96144.88;;;5.85;63.30
23363;BME280;11853;48.080;11.960;2024-01-30T00:40:02;96135.47;;;5.81;63.28
23363;BME280;11853;48.080;11.960;2024-01-30T00:42:29;96146.84;;;5.81;63.95
23363;BME280;11853;48.080;11.960;2024-01-30T00:44:54;96146.16;;;5.78;64.15
23363;BME280;11853;48.080;11.960;2024-01-30T00:47:20;96138.56;;;5.73;63.81
23363;BME280;11853;48.080;11.960;2024-01-30T00:49:45;96141.09;;;5.75;64.01
23363;BME280;11853;48.080;11.960;2024-01-30T00:52:11;96140.53;;;5.70;63.78
23363;BME280;11853;48.080;11.960;2024-01-30T00:54:37;96138.81;;;5.69;64.34
23363;BME280;11853;48.080;11.960;2024-01-30T00:57:03;96134.50;;;5.68;64.71
23363;BME280;11853;48.080;11.960;2024-01-30T00:59:28;96138.25;;;5.63;64.69
23363;BME280;11853;48.080;11.960;2024-01-30T01:01:54;96139.44;;;5.58;63.98
23363;BME280;11853;48.080;11.960;2024-01-30T01:04:19;96146.13;;;5.63;63.85
23363;BME280;11853;48.080;11.960;2024-01-30T01:06:47;96142.94;;;5.58;64.35
23363;BME280;11853;48.080;11.960;2024-01-30T01:09:12;96136.06;;;5.56;63.98
23363;BME280;11853;48.080;11.960;2024-01-30T01:11:38;96149.31;;;5.54;64.31
23363;BME280;11853;48.080;11.960;2024-01-30T01:14:04;96137.28;;;5.50;64.30
23363;BME280;11853;48.080;11.960;2024-01-30T01:16:30;96136.44;;;5.50;64.11
23363;BME280;11853;48.080;11.960;2024-01-30T01:18:55;96141.69;;;5.50;65.03
23363;BME280;11853;48.080;11.960;2024-01-30T01:21:21;96140.09;;;5.47;64.83
23363;BME280;11853;48.080;11.960;2024-01-30T01:23:47;96153.25;;;5.47;64.66
23363;BME280;11853;48.080;11.960;2024-01-30T01:26:12;96154.28;;;5.45;64.91
23363;BME280;11853;48.080;11.960;2024-01-30T01:28:40;96143.09;;;5.41;65.76
23363;BME280;11853;48.080;11.960;2024-01-30T01:31:06;96144.78;;;5.42;65.40
23363;BME280;11853;48.080;11.960;2024-01-30T01:33:32;96145.63;;;5.42;65.67
23363;BME280;11853;48.080;11.960;2024-01-30T01:35:59;96144.09;;;5.38;65.23
23363;BME280;11853;48.080;11.960;2024-01-30T01:38:25;96145.03;;;5.37;65.52
23363;BME280;11853;48.080;11.960;2024-01-30T01:40:50;96142.41;;;5.37;65.52
23363;BME280;11853;48.080;11.960;2024-01-30T01:43:16;96143.34;;;5.36;65.09
23363;BME280;11853;48.080;11.960;2024-01-30T01:45:42;96147.75;;;5.36;65.79
23363;BME280;11853;48.080;11.960;2024-01-30T01:48:08;96143.59;;;5.32;65.07
23363;BME280;11853;48.080;11.960;2024-01-30T01:50:35;96142.94;;;5.28;65.29
23363;BME280;11853;48.080;11.960;2024-01-30T01:53:01;96151.78;;;5.27;66.41
23363;BME280;11853;48.080;11.960;2024-01-30T01:55:29;96144.13;;;5.23;65.54
23363;BME280;11853;48.080;11.960;2024-01-30T01:57:55;96133.78;;;5.19;66.06
23363;BME280;11853;48.080;11.960;2024-01-30T02:00:21;96137.53;;;5.15;66.16
23363;BME280;11853;48.080;11.960;2024-01-30T02:02:47;96135.94;;;5.13;65.90
23363;BME280;11853;48.080;11.960;2024-01-30T02:05:12;96142.81;;;5.15;65.95
23363;BME280;11853;48.080;11.960;2024-01-30T02:07:38;96136.09;;;5.10;66.47
23363;BME280;11853;48.080;11.960;2024-01-30T02:10:04;96139.56;;;5.10;66.51
23363;BME280;11853;48.080;11.960;2024-01-30T02:12:30;96130.16;;;5.06;66.61
23363;BME280;11853;48.080;11.960;2024-01-30T02:14:55;96133.66;;;5.07;65.95
23363;BME280;11853;48.080;11.960;2024-01-30T02:17:21;96133.13;;;5.00;66.41
23363;BME280;11853;48.080;11.960;2024-01-30T02:19:48;96136.53;;;5.02;66.89
23363;BME280;11853;48.080;11.960;2024-01-30T02:22:14;96145.19;;;5.04;66.63
23363;BME280;11853;48.080;11.960;2024-01-30T02:24:40;96140.09;;;5.01;66.80
23363;BME280;11853;48.080;11.960;2024-01-30T02:27:05;96138.56;;;4.97;66.92
23363;BME280;11853;48.080;11.960;2024-01-30T02:29:31;96139.34;;;4.99;67.05
23363;BME280;11853;48.080;11.960;2024-01-30T02:31:56;96141.03;;;5.00;66.73
23363;BME280;11853;48.080;11.960;2024-01-30T02:34:23;96139.41;;;4.97;66.56
23363;BME280;11853;48.080;11.960;2024-01-30T02:36:49;96142.22;;;4.94;67.69
23363;BME280;11853;48.080;11.960;2024-01-30T02:39:14;96138.75;;;4.94;66.90
23363;BME280;11853;48.080;11.960;2024-01-30T02:41:40;96141.38;;;4.94;66.93
23363;BME280;11853;48.080;11.960;2024-01-30T02:44:05;96134.16;;;4.97;66.81
23363;BME280;11853;48.080;11.960;2024-01-30T02:46:31;96135.75;;;5.00;67.37
23363;BME280;11853;48.080;11.960;2024-01-30T02:48:56;96135.75;;;5.00;66.86
23363;BME280;11853;48.080;11.960;2024-01-30T02:51:22;96133.13;;;5.00;66.85
23363;BME280;11853;48.080;11.960;2024-01-30T02:53:47;96132.28;;;5.00;66.67
23363;BME280;11853;48.080;11.960;2024-01-30T02:56:13;96138.38;;;5.00;66.70
23363;BME280;11853;48.080;11.960;2024-01-30T02:58:39;96126.19;;;4.99;67.06
23363;BME280;11853;48.080;11.960;2024-01-30T03:01:06;96129.66;;;5.00;66.66
23363;BME280;11853;48.080;11.960;2024-01-30T03:03:32;96126.38;;;4.96;67.17
23363;BME280;11853;48.080;11.960;2024-01-30T03:05:57;96131.44;;;4.99;67.23
23363;BME280;11853;48.080;11.960;2024-01-30T03:08:23;96128.81;;;4.99;66.38
23363;BME280;11853;48.080;11.960;2024-01-30T03:10:48;96125.41;;;4.97;66.97
23363;BME280;11853;48.080;11.960;2024-01-30T03:13:14;96129.91;;;4.95;66.89
23363;BME280;11853;48.080;11.960;2024-01-30T03:15:39;96118.72;;;4.91;66.38
23363;BME280;11853;48.080;11.960;2024-01-30T03:18:05;96117.88;;;4.91;67.11
23363;BME280;11853;48.080;11.960;2024-01-30T03:20:31;96114.31;;;4.92;66.66
23363;BME280;11853;48.080;11.960;2024-01-30T03:22:57;96114.31;;;4.92;67.08
23363;BME280;11853;48.080;11.960;2024-01-30T03:25:24;96119.66;;;4.90;66.79
23363;BME280;11853;48.080;11.960;2024-01-30T03:27:50;96109.41;;;4.86;67.30
23363;BME280;11853;48.080;11.960;2024-01-30T03:30:16;96113.56;;;4.90;66.52
23363;BME280;11853;48.080;11.960;2024-01-30T03:32:42;96122.31;;;4.90;66.93
23363;BME280;11853;48.080;11.960;2024-01-30T03:35:08;96116.94;;;4.92;66.92
23363;BME280;11853;48.080;11.960;2024-01-30T03:37:34;96119.38;;;4.95;66.42
23363;BME280;11853;48.080;11.960;2024-01-30T03:39:59;96120.94;;;4.99;66.43
23363;BME280;11853;48.080;11.960;2024-01-30T03:42:25;96116.50;;;5.00;66.83
23363;BME280;11853;48.080;11.960;2024-01-30T03:44:50;96124.41;;;5.00;65.89
23363;BME280;11853;48.080;11.960;2024-01-30T03:47:20;96127.69;;;5.03;65.44
23363;BME280;11853;48.080;11.960;2024-01-30T03:49:46;96119.25;;;4.98;66.56
23363;BME280;11853;48.080;11.960;2024-01-30T03:52:11;96117.72;;;4.94;66.25
23363;BME280;11853;48.080;11.960;2024-01-30T03:54:37;96116.03;;;4.93;66.15
23363;BME280;11853;48.080;11.960;2024-01-30T03:57:03;96116.03;;;4.93;66.76
23363;BME280;11853;48.080;11.960;2024-01-30T03:59:28;96117.88;;;4.91;66.47
23363;BME280;11853;48.080;11.960;2024-01-30T04:01:54;96112.63;;;4.91;66.58
23363;BME280;11853;48.080;11.960;2024-01-30T04:04:20;96118.72;;;4.91;65.78
23363;BME280;11853;48.080;11.960;2024-01-30T04:06:46;96115.19;;;4.92;65.94
23363;BME280;11853;48.080;11.960;2024-01-30T04:09:12;96117.72;;;4.94;66.41
23363;BME280;11853;48.080;11.960;2024-01-30T04:11:41;96115.91;;;4.94;66.23
23363;BME280;11853;48.080;11.960;2024-01-30T04:14:08;96115.25;;;4.91;66.15
23363;BME280;11853;48.080;11.960;2024-01-30T04:16:33;96113.63;;;4.88;66.30
23363;BME280;11853;48.080;11.960;2024-01-30T04:18:59;96105.84;;;4.87;66.21
23363;BME280;11853;48.080;11.960;2024-01-30T04:21:25;96120.50;;;4.91;65.43
23363;BME280;11853;48.080;11.960;2024-01-30T04:23:53;96104.75;;;4.91;65.31
23363;BME280;11853;48.080;11.960;2024-01-30T04:26:19;96112.63;;;4.91;65.61
23363;BME280;11853;48.080;11.960;2024-01-30T04:28:45;96110.00;;;4.91;65.75
23363;BME280;11853;48.080;11.960;2024-01-30T04:31:47;96113.41;;;4.93;65.94
23363;BME280;11853;48.080;11.960;2024-01-30T04:34:13;96113.56;;;4.90;65.81
23363;BME280;11853;48.080;11.960;2024-01-30T04:36:38;96108.31;;;4.90;66.10
23363;BME280;11853;48.080;11.960;2024-01-30T04:39:04;96112.72;;;4.89;65.76
23363;BME280;11853;48.080;11.960;2024-01-30T04:41:29;96103.97;;;4.89;65.21
23363;BME280;11853;48.080;11.960;2024-01-30T04:43:56;96110.00;;;4.91;64.59
23363;BME280;11853;48.080;11.960;2024-01-30T04:46:22;96105.50;;;4.93;64.93
23363;BME280;11853;48.080;11.960;2024-01-30T04:48:47;96110.94;;;4.90;64.88
23363;BME280;11853;48.080;11.960;2024-01-30T04:51:13;96104.66;;;4.92;64.90
23363;BME280;11853;48.080;11.960;2024-01-30T04:53:38;96117.72;;;4.94;64.64
23363;BME280;11853;48.080;11.960;2024-01-30T04:56:05;96122.03;;;4.95;64.65
23363;BME280;11853;48.080;11.960;2024-01-30T04:58:31;96112.44;;;4.94;64.57
23363;BME280;11853;48.080;11.960;2024-01-30T05:00:56;96116.75;;;4.95;64.63
23363;BME280;11853;48.080;11.960;2024-01-30T05:03:22;96119.31;;;4.96;63.83
23363;BME280;11853;48.080;11.960;2024-01-30T05:05:48;96118.56;;;4.94;64.67
23363;BME280;11853;48.080;11.960;2024-01-30T05:08:14;96122.72;;;4.99;63.97
23363;BME280;11853;48.080;11.960;2024-01-30T05:10:40;96113.13;;;4.97;64.88
23363;BME280;11853;48.080;11.960;2024-01-30T05:13:05;96126.38;;;4.96;64.88
23363;BME280;11853;48.080;11.960;2024-01-30T05:15:31;96114.13;;;4.95;63.84
23363;BME280;11853;48.080;11.960;2024-01-30T05:17:56;96120.34;;;4.94;63.71
23363;BME280;11853;48.080;11.960;2024-01-30T05:20:22;96127.28;;;4.95;63.18
23363;BME280;11853;48.080;11.960;2024-01-30T05:22:47;96125.59;;;4.94;63.97
23363;BME280;11853;48.080;11.960;2024-01-30T05:25:13;96119.75;;;4.89;63.92
23363;BME280;11853;48.080;11.960;2024-01-30T05:27:38;96124.16;;;4.88;64.17
23363;BME280;11853;48.080;11.960;2024-01-30T05:30:06;96126.72;;;4.90;63.84
23363;BME280;11853;48.080;11.960;2024-01-30T05:32:31;96120.75;;;4.86;63.95
23363;BME280;11853;48.080;11.960;2024-01-30T05:34:57;96126.88;;;4.87;63.86
23363;BME280;11853;48.080;11.960;2024-01-30T05:37:22;96125.19;;;4.86;64.20
23363;BME280;11853;48.080;11.960;2024-01-30T05:39:48;96129.59;;;4.85;64.37
23363;BME280;11853;48.080;11.960;2024-01-30T05:42:14;96134.00;;;4.85;64.01
23363;BME280;11853;48.080;11.960;2024-01-30T05:44:40;96131.56;;;4.82;63.38
23363;BME280;11853;48.080;11.960;2024-01-30T05:47:06;96133.16;;;4.84;64.07
23363;BME280;11853;48.080;11.960;2024-01-30T05:49:31;96135.88;;;4.83;64.37
23363;BME280;11853;48.080;11.960;2024-01-30T05:51:57;96134.19;;;4.82;64.34
23363;BME280;11853;48.080;11.960;2024-01-30T05:54:23;96122.47;;;4.87;64.77
23363;BME280;11853;48.080;11.960;2024-01-30T05:56:48;96138.16;;;4.89;64.61
23363;BME280;11853;48.080;11.960;2024-01-30T05:59:14;96144.53;;;4.85;65.39
23363;BME280;11853;48.080;11.960;2024-01-30T06:01:48;96140.28;;;4.82;64.61
23363;BME280;11853;48.080;11.960;2024-01-30T06:04:14;96141.22;;;4.81;65.24
23363;BME280;11853;48.080;11.960;2024-01-30T06:06:40;96141.47;;;4.77;64.96
23363;BME280;11853;48.080;11.960;2024-01-30T06:09:06;96138.25;;;4.71;64.66
23363;BME280;11853;48.080;11.960;2024-01-30T06:11:34;96146.22;;;4.70;64.48
23363;BME280;11853;48.080;11.960;2024-01-30T06:14:00;96141.31;;;4.64;64.96
23363;BME280;11853;48.080;11.960;2024-01-30T06:16:25;96141.31;;;4.64;65.04
23363;BME280;11853;48.080;11.960;2024-01-30T06:18:55;96149.38;;;4.61;65.75
23363;BME280;11853;48.080;11.960;2024-01-30T06:21:20;96147.59;;;4.61;65.22
23363;BME280;11853;48.080;11.960;2024-01-30T06:23:46;96140.94;;;4.54;65.20
23363;BME280;11853;48.080;11.960;2024-01-30T06:26:12;96145.34;;;4.54;65.70
23363;BME280;11853;48.080;11.960;2024-01-30T06:28:40;96153.31;;;4.52;65.87
23363;BME280;11853;48.080;11.960;2024-01-30T06:31:06;96154.84;;;4.56;65.46
23363;BME280;11853;48.080;11.960;2024-01-30T06:33:31;96146.13;;;4.56;65.88
23363;BME280;11853;48.080;11.960;2024-01-30T06:35:57;96148.59;;;4.59;65.97
23363;BME280;11853;48.080;11.960;2024-01-30T06:38:22;96152.84;;;4.61;65.13
23363;BME280;11853;48.080;11.960;2024-01-30T06:40:48;96158.09;;;4.61;65.07
23363;BME280;11853;48.080;11.960;2024-01-30T06:43:13;96164.19;;;4.62;65.49
23363;BME280;11853;48.080;11.960;2024-01-30T06:45:39;96164.09;;;4.63;65.46
23363;BME280;11853;48.080;11.960;2024-01-30T06:48:04;96164.09;;;4.63;66.24
23363;BME280;11853;48.080;11.960;2024-01-30T06:50:30;96163.19;;;4.64;65.25
23363;BME280;11853;48.080;11.960;2024-01-30T06:52:56;96158.75;;;4.65;65.65
23363;BME280;11853;48.080;11.960;2024-01-30T06:55:21;96168.25;;;4.67;66.02
23363;BME280;11853;48.080;11.960;2024-01-30T06:57:47;96173.53;;;4.67;65.41
23363;BME280;11853;48.080;11.960;2024-01-30T07:00:13;96166.41;;;4.69;65.91
23363;BME280;11853;48.080;11.960;2024-01-30T07:02:39;96173.00;;;4.77;65.64
23363;BME280;11853;48.080;11.960;2024-01-30T07:05:05;96167.91;;;5.05;64.24
23363;BME280;11853;48.080;11.960;2024-01-30T07:07:33;96167.16;;;5.49;63.90
23363;BME280;11853;48.080;11.960;2024-01-30T07:10:08;96166.97;;;6.13;61.59
23363;BME280;11853;48.080;11.960;2024-01-30T07:12:34;96168.63;;;6.71;59.67
23363;BME280;11853;48.080;11.960;2024-01-30T07:14:59;96164.41;;;7.10;58.72
23363;BME280;11853;48.080;11.960;2024-01-30T07:20:36;96171.84;;;7.84;55.03
23363;BME280;11853;48.080;11.960;2024-01-30T07:23:39;96174.47;;;7.84;54.31
23363;BME280;11853;48.080;11.960;2024-01-30T07:26:20;96175.34;;;7.58;54.76
23363;BME280;11853;48.080;11.960;2024-01-30T07:29:13;96185.19;;;7.29;55.30
23363;BME280;11853;48.080;11.960;2024-01-30T07:31:42;96184.06;;;6.77;56.79
23363;BME280;11853;48.080;11.960;2024-01-30T07:34:07;96180.88;;;6.72;57.18
23363;BME280;11853;48.080;11.960;2024-01-30T07:36:33;96180.59;;;6.76;56.61
23363;BME280;11853;48.080;11.960;2024-01-30T07:38:58;96183.13;;;6.78;56.37
23363;BME280;11853;48.080;11.960;2024-01-30T07:41:47;96178.97;;;6.88;56.33
23363;BME280;11853;48.080;11.960;2024-01-30T07:44:12;96170.94;;;7.04;56.12
23363;BME280;11853;48.080;11.960;2024-01-30T07:46:38;96171.53;;;7.22;57.03
23363;BME280;11853;48.080;11.960;2024-01-30T07:49:03;96178.66;;;7.34;57.51
23363;BME280;11853;48.080;11.960;2024-01-30T07:51:29;96175.06;;;7.35;56.21
23363;BME280;11853;48.080;11.960;2024-01-30T07:53:57;96171.50;;;7.36;56.53
23363;BME280;11853;48.080;11.960;2024-01-30T07:56:23;96171.50;;;7.36;57.16
23363;BME280;11853;48.080;11.960;2024-01-30T07:58:48;96178.66;;;7.34;57.20
23363;BME280;11853;48.080;11.960;2024-01-30T08:01:15;96179.91;;;7.56;55.22
23363;BME280;11853;48.080;11.960;2024-01-30T08:03:41;96175.13;;;8.01;54.89
23363;BME280;11853;48.080;11.960;2024-01-30T08:06:07;96178.00;;;8.74;52.21
23363;BME280;11853;48.080;11.960;2024-01-30T08:08:32;96184.28;;;9.58;51.52
23363;BME280;11853;48.080;11.960;2024-01-30T08:10:58;96181.44;;;10.43;48.47
23363;BME280;11853;48.080;11.960;2024-01-30T08:13:24;96170.44;;;11.26;45.78
23363;BME280;11853;48.080;11.960;2024-01-30T08:15:49;96181.94;;;12.24;43.92
23363;BME280;11853;48.080;11.960;2024-01-30T08:18:15;96176.97;;;12.92;41.88
23363;BME280;11853;48.080;11.960;2024-01-30T08:20:40;96179.16;;;13.48;41.35
23363;BME280;11853;48.080;11.960;2024-01-30T08:23:06;96185.94;;;14.20;40.11
23363;BME280;11853;48.080;11.960;2024-01-30T08:25:31;96181.63;;;14.76;38.85
23363;BME280;11853;48.080;11.960;2024-01-30T08:27:57;96174.34;;;15.33;37.88
23363;BME280;11853;48.080;11.960;2024-01-30T08:30:39;96176.22;;;15.50;38.05
23363;BME280;11853;48.080;11.960;2024-01-30T08:33:14;96174.81;;;16.28;35.90
23363;BME280;11853;48.080;11.960;2024-01-30T08:36:02;96179.19;;;16.73;34.68
23363;BME280;11853;48.080;11.960;2024-01-30T08:38:37;96189.72;;;17.26;34.20
23363;BME280;11853;48.080;11.960;2024-01-30T08:41:03;96193.06;;;17.71;32.94
23363;BME280;11853;48.080;11.960;2024-01-30T08:43:29;96188.63;;;17.88;32.44
23363;BME280;11853;48.080;11.960;2024-01-30T08:45:54;96186.81;;;18.13;32.80
23363;BME280;11853;48.080;11.960;2024-01-30T08:48:20;96188.00;;;18.51;31.92
23363;BME280;11853;48.080;11.960;2024-01-30T08:50:46;96174.56;;;18.84;31.21
23363;BME280;11853;48.080;11.960;2024-01-30T08:53:12;96185.81;;;18.79;31.38
23363;BME280;11853;48.080;11.960;2024-01-30T08:55:37;96190.50;;;18.94;30.96
23363;BME280;11853;48.080;11.960;2024-01-30T08:58:04;96183.91;;;19.04;31.36
23363;BME280;11853;48.080;11.960;2024-01-30T09:00:30;96186.56;;;19.21;30.92
23363;BME280;11853;48.080;11.960;2024-01-30T09:02:56;96191.00;;;19.53;30.24
23363;BME280;11853;48.080;11.960;2024-01-30T09:05:21;96192.63;;;20.01;29.22
23363;BME280;11853;48.080;11.960;2024-01-30T09:07:47;96184.22;;;20.19;28.85
23363;BME280;11853;48.080;11.960;2024-01-30T09:10:12;96187.84;;;20.12;29.65
23363;BME280;11853;48.080;11.960;2024-01-30T09:12:38;96192.50;;;20.41;29.00
23363;BME280;11853;48.080;11.960;2024-01-30T09:15:03;96194.66;;;20.45;28.59
23363;BME280;11853;48.080;11.960;2024-01-30T09:17:29;96196.44;;;20.76;28.10
23363;BME280;11853;48.080;11.960;2024-01-30T09:19:55;96201.78;;;20.84;28.15
23363;BME280;11853;48.080;11.960;2024-01-30T09:22:20;96202.63;;;21.00;28.22
23363;BME280;11853;48.080;11.960;2024-01-30T09:24:46;96205.81;;;21.03;28.21
23363;BME280;11853;48.080;11.960;2024-01-30T09:27:12;96208.97;;;21.07;28.33
23363;BME280;11853;48.080;11.960;2024-01-30T09:29:37;96208.53;;;21.33;27.86
23363;BME280;11853;48.080;11.960;2024-01-30T09:32:04;96208.84;;;21.00;28.18
23363;BME280;11853;48.080;11.960;2024-01-30T09:34:30;96203.13;;;21.18;27.40
23363;BME280;11853;48.080;11.960;2024-01-30T09:36:55;96208.75;;;21.46;27.59
23363;BME280;11853;48.080;11.960;2024-01-30T09:39:21;96209.16;;;21.20;27.83
23363;BME280;11853;48.080;11.960;2024-01-30T09:42:03;96223.09;;;21.62;27.79
23363;BME280;11853;48.080;11.960;2024-01-30T09:44:30;96212.59;;;21.88;27.07
23363;BME280;11853;48.080;11.960;2024-01-30T09:46:56;96217.28;;;21.79;26.91
23363;BME280;11853;48.080;11.960;2024-01-30T09:49:30;96215.41;;;21.95;27.23
23363;BME280;11853;48.080;11.960;2024-01-30T09:51:57;96213.16;;;21.98;26.94
23363;BME280;11853;48.080;11.960;2024-01-30T09:54:23;96212.59;;;22.18;26.62
23363;BME280;11853;48.080;11.960;2024-01-30T09:56:48;96219.59;;;22.34;26.51
23363;BME280;11853;48.080;11.960;2024-01-30T09:59:14;96210.28;;;22.36;26.84
23363;BME280;11853;48.080;11.960;2024-01-30T10:01:40;96216.25;;;22.53;26.68
23363;BME280;11853;48.080;11.960;2024-01-30T10:04:07;96208.91;;;22.68;26.56
23363;BME280;11853;48.080;11.960;2024-01-30T10:06:34;96205.41;;;22.75;27.25
23363;BME280;11853;48.080;11.960;2024-01-30T10:08:59;96203.19;;;22.78;27.07
23363;BME280;11853;48.080;11.960;2024-01-30T10:11:25;96198.25;;;22.88;26.92
23363;BME280;11853;48.080;11.960;2024-01-30T10:13:50;96200.16;;;22.94;26.88
23363;BME280;11853;48.080;11.960;2024-01-30T10:16:16;96197.81;;;22.85;27.78
23363;BME280;11853;48.080;11.960;2024-01-30T10:18:42;96194.75;;;23.16;27.01
23363;BME280;11853;48.080;11.960;2024-01-30T10:21:08;96197.91;;;23.26;27.50
23363;BME280;11853;48.080;11.960;2024-01-30T10:23:35;96197.16;;;23.04;27.27
23363;BME280;11853;48.080;11.960;2024-01-30T10:26:03;96197.19;;;23.39;26.76
23363;BME280;11853;48.080;11.960;2024-01-30T10:28:29;96185.88;;;23.64;26.95
23363;BME280;11853;48.080;11.960;2024-01-30T10:30:59;96186.88;;;23.63;27.35
23363;BME280;11853;48.080;11.960;2024-01-30T10:33:26;96187.84;;;23.83;27.00
23363;BME280;11853;48.080;11.960;2024-01-30T10:35:56;96185.88;;;23.64;27.69
23363;BME280;11853;48.080;11.960;2024-01-30T10:38:28;96182.16;;;23.71;27.98
23363;BME280;11853;48.080;11.960;2024-01-30T10:40:56;96187.28;;;23.59;27.44
23363;BME280;11853;48.080;11.960;2024-01-30T10:43:25;96175.81;;;23.57;26.97
23363;BME280;11853;48.080;11.960;2024-01-30T10:45:56;96175.41;;;23.60;25.34
23363;BME280;11853;48.080;11.960;2024-01-30T10:48:26;96171.25;;;23.65;25.48
23363;BME280;11853;48.080;11.960;2024-01-30T10:50:55;96176.94;;;23.35;26.25
23363;BME280;11853;48.080;11.960;2024-01-30T10:53:22;96169.84;;;23.34;25.94
23363;BME280;11853;48.080;11.960;2024-01-30T10:55:49;96163.47;;;23.13;26.92
23363;BME280;11853;48.080;11.960;2024-01-30T10:58:17;96166.88;;;23.22;26.43
23363;BME280;11853;48.080;11.960;2024-01-30T11:00:43;96163.66;;;22.84;24.62
23363;BME280;11853;48.080;11.960;2024-01-30T11:03:10;96157.69;;;22.67;24.68
23363;BME280;11853;48.080;11.960;2024-01-30T11:05:35;96153.47;;;22.58;24.56
23363;BME280;11853;48.080;11.960;2024-01-30T11:08:14;96155.06;;;22.09;24.97
23363;BME280;11853;48.080;11.960;2024-01-30T11:10:48;96158.56;;;21.88;25.23
23363;BME280;11853;48.080;11.960;2024-01-30T11:13:15;96149.03;;;21.56;24.58
23363;BME280;11853;48.080;11.960;2024-01-30T11:15:41;96152.97;;;21.09;24.74
23363;BME280;11853;48.080;11.960;2024-01-30T11:18:06;96144.56;;;20.89;25.11
23363;BME280;11853;48.080;11.960;2024-01-30T11:20:32;96142.94;;;20.65;25.21
23363;BME280;11853;48.080;11.960;2024-01-30T11:23:01;96139.22;;;20.66;25.38
23363;BME280;11853;48.080;11.960;2024-01-30T11:25:32;96130.66;;;20.39;26.06
23363;BME280;11853;48.080;11.960;2024-01-30T11:27:58;96139.19;;;20.28;27.30
23363;BME280;11853;48.080;11.960;2024-01-30T11:30:31;96133.25;;;20.33;27.36
23363;BME280;11853;48.080;11.960;2024-01-30T11:33:08;96131.72;;;20.38;27.64
23363;BME280;11853;48.080;11.960;2024-01-30T11:35:38;96121.50;;;20.25;27.70
23363;BME280;11853;48.080;11.960;2024-01-30T11:38:07;96126.03;;;20.10;27.89
23363;BME280;11853;48.080;11.960;2024-01-30T11:40:34;96120.53;;;20.03;28.51
23363;BME280;11853;48.080;11.960;2024-01-30T11:43:02;96117.22;;;19.62;28.81
23363;BME280;11853;48.080;11.960;2024-01-30T11:45:28;96115.66;;;19.45;30.10
23363;BME280;11853;48.080;11.960;2024-01-30T11:47:54;96115.75;;;19.51;30.19
23363;BME280;11853;48.080;11.960;2024-01-30T11:50:20;96122.41;;;19.41;30.17
23363;BME280;11853;48.080;11.960;2024-01-30T11:52:46;96124.19;;;19.48;30.93
23363;BME280;11853;48.080;11.960;2024-01-30T11:55:12;96121.31;;;19.58;31.08
23363;BME280;11853;48.080;11.960;2024-01-30T11:57:38;96108.66;;;19.58;30.46
23363;BME280;11853;48.080;11.960;2024-01-30T12:00:04;96109.06;;;19.47;29.51
23363;BME280;11853;48.080;11.960;2024-01-30T12:02:38;96098.13;;;19.18;29.55
23363;BME280;11853;48.080;11.960;2024-01-30T12:05:07;96093.84;;;19.31;29.75
23363;BME280;11853;48.080;11.960;2024-01-30T12:07:33;96091.56;;;19.20;30.26
23363;BME280;11853;48.080;11.960;2024-01-30T12:09:59;96099.00;;;19.10;29.83
23363;BME280;11853;48.080;11.960;2024-01-30T12:12:26;96094.34;;;18.96;30.27
23363;BME280;11853;48.080;11.960;2024-01-30T12:14:52;96088.28;;;18.94;30.13
23363;BME280;11853;48.080;11.960;2024-01-30T12:17:28;96091.53;;;18.89;30.26
23363;BME280;11853;48.080;11.960;2024-01-30T12:20:04;96090.19;;;18.77;30.48
23363;BME280;11853;48.080;11.960;2024-01-30T12:22:36;96092.91;;;18.60;30.55
23363;BME280;11853;48.080;11.960;2024-01-30T12:25:04;96080.66;;;18.41;30.81
23363;BME280;11853;48.080;11.960;2024-01-30T12:27:30;96087.41;;;18.21;31.68
23363;BME280;11853;48.080;11.960;2024-01-30T12:29:57;96084.75;;;18.05;32.13
23363;BME280;11853;48.080;11.960;2024-01-30T12:32:26;96087.25;;;17.98;32.20
23363;BME280;11853;48.080;11.960;2024-01-30T12:34:55;96094.28;;;17.83;31.71
23363;BME280;11853;48.080;11.960;2024-01-30T12:37:22;96098.31;;;17.78;32.76
23363;BME280;11853;48.080;11.960;2024-01-30T12:39:51;96081.47;;;17.44;32.55
23363;BME280;11853;48.080;11.960;2024-01-30T12:42:19;96086.81;;;17.36;33.01
23363;BME280;11853;48.080;11.960;2024-01-30T12:44:46;96086.31;;;17.40;33.01
23363;BME280;11853;48.080;11.960;2024-01-30T12:47:11;96092.16;;;17.27;33.26
23363;BME280;11853;48.080;11.960;2024-01-30T12:49:37;96087.28;;;17.23;33.45
23363;BME280;11853;48.080;11.960;2024-01-30T12:52:03;96092.63;;;17.15;34.21
23363;BME280;11853;48.080;11.960;2024-01-30T12:54:28;96093.78;;;17.12;34.27
23363;BME280;11853;48.080;11.960;2024-01-30T12:56:54;96080.19;;;17.14;33.10
23363;BME280;11853;48.080;11.960;2024-01-30T12:59:19;96081.06;;;17.22;32.47